createdAt,value
2023-03-24T04:49:03.333Z,12.60
2023-03-24T04:51:31.159Z,12.60
2023-03-24T04:53:57.821Z,12.60
2023-03-24T04:56:36.549Z,12.50
2023-03-24T04:59:03.298Z,12.30
2023-03-24T05:01:30.832Z,12.50
2023-03-24T05:03:58.370Z,12.40
2023-03-24T05:06:25.995Z,12.50
2023-03-24T05:08:52.988Z,12.70
2023-03-24T05:11:20.538Z,12.70
2023-03-24T05:13:47.610Z,12.60
2023-03-24T05:16:15.151Z,12.70
2023-03-24T05:18:42.223Z,12.70
2023-03-24T05:21:09.288Z,12.80
2023-03-24T05:23:36.062Z,12.80
2023-03-24T05:26:03.459Z,12.90
2023-03-24T05:28:30.299Z,13.10
2023-03-24T05:30:56.988Z,13.20
2023-03-24T05:33:23.793Z,13.20
2023-03-24T05:35:50.528Z,13.20
2023-03-24T05:38:17.210Z,13.20
2023-03-24T05:40:43.908Z,13.30
2023-03-24T05:43:12.187Z,13.50
2023-03-24T05:45:39.416Z,13.40
2023-03-24T05:48:06.378Z,13.60
2023-03-24T05:50:33.554Z,13.50
2023-03-24T05:53:00.838Z,13.50
2023-03-24T05:55:27.474Z,13.60
2023-03-24T05:57:54.151Z,13.70
2023-03-24T06:00:21.103Z,13.80
2023-03-24T06:02:47.827Z,13.80
2023-03-24T06:05:14.688Z,13.80
2023-03-24T06:07:44.374Z,13.70
2023-03-24T06:10:14.413Z,13.70
2023-03-24T06:12:41.576Z,13.60
2023-03-24T06:15:09.322Z,13.50
2023-03-24T06:17:37.371Z,13.20
2023-03-24T06:20:05.913Z,13.10
2023-03-24T06:22:33.746Z,13.00
2023-03-24T06:25:00.732Z,13.10
2023-03-24T06:27:30.409Z,13.10
2023-03-24T06:30:00.251Z,13.20
2023-03-24T06:32:27.259Z,13.20
2023-03-24T06:34:54.223Z,13.20
2023-03-24T06:37:24.076Z,13.10
2023-03-24T06:39:50.846Z,13.20
2023-03-24T06:42:18.581Z,13.30
2023-03-24T06:44:45.447Z,13.50
2023-03-24T06:47:12.079Z,13.50
2023-03-24T06:49:38.795Z,13.40
2023-03-24T06:52:05.646Z,13.60
2023-03-24T06:54:32.297Z,13.70
2023-03-24T06:56:58.935Z,13.70
2023-03-24T06:59:25.691Z,13.60
2023-03-24T07:01:53.171Z,13.60
2023-03-24T07:04:21.364Z,13.60
2023-03-24T07:07:03.523Z,13.70
2023-03-24T07:09:34.798Z,13.70
2023-03-24T07:12:03.395Z,13.70
2023-03-24T07:14:30.170Z,13.80
2023-03-24T07:16:56.856Z,13.90
2023-03-24T07:19:23.548Z,14.10
2023-03-24T07:21:50.350Z,14.10
2023-03-24T07:24:17.713Z,14.10
2023-03-24T07:26:44.469Z,14.20
2023-03-24T07:29:11.858Z,14.10
2023-03-24T07:31:39.360Z,14.10
2023-03-24T07:34:06.843Z,14.00
2023-03-24T07:36:33.713Z,13.60
2023-03-24T07:39:00.744Z,13.70
2023-03-24T07:41:29.238Z,13.80
2023-03-24T07:43:55.903Z,13.90
2023-03-24T07:46:22.745Z,14.00
2023-03-24T07:48:49.354Z,13.70
2023-03-24T07:51:17.946Z,13.70
2023-03-24T07:53:45.678Z,13.70
2023-03-24T07:56:12.424Z,13.60
2023-03-24T07:58:39.101Z,13.50
2023-03-24T08:01:12.632Z,13.40
2023-03-24T08:03:40.827Z,13.40
2023-03-24T08:06:09.398Z,13.50
2023-03-24T08:08:36.868Z,13.50
2023-03-24T08:11:04.591Z,13.50
2023-03-24T08:13:31.314Z,13.50
2023-03-24T08:15:57.975Z,13.40
2023-03-24T08:18:25.254Z,13.40
2023-03-24T08:20:57.764Z,13.50
2023-03-24T08:23:25.065Z,13.50
2023-03-24T08:25:51.826Z,13.60
2023-03-24T08:28:18.520Z,13.80
2023-03-24T08:30:45.314Z,13.90
2023-03-24T08:33:14.373Z,13.90
2023-03-24T08:35:41.429Z,14.10
2023-03-24T08:38:09.558Z,14.40
2023-03-24T08:40:38.588Z,14.60
2023-03-24T08:43:11.005Z,14.60
2023-03-24T08:45:38.311Z,14.20
2023-03-24T08:48:07.337Z,14.20
2023-03-24T08:50:37.377Z,13.90
2023-03-24T08:53:04.808Z,13.70
2023-03-24T08:55:33.018Z,13.70
2023-03-24T08:58:00.377Z,13.60
2023-03-24T09:00:28.837Z,13.80
2023-03-24T09:02:56.463Z,13.80
2023-03-24T09:05:37.133Z,13.80
2023-03-24T09:08:11.420Z,13.80
2023-03-24T09:10:40.010Z,13.90
2023-03-24T09:13:06.962Z,14.40
2023-03-24T09:15:34.097Z,14.50
2023-03-24T09:18:01.931Z,14.60
2023-03-24T09:20:28.959Z,14.80
2023-03-24T09:22:56.124Z,14.80
2023-03-24T09:25:24.274Z,14.30
2023-03-24T09:27:51.069Z,14.20
2023-03-24T09:30:19.048Z,13.90
2023-03-24T09:32:46.486Z,14.10
2023-03-24T09:35:13.568Z,14.40
2023-03-24T09:37:41.073Z,14.50
2023-03-24T09:40:08.416Z,14.60
2023-03-24T09:42:41.205Z,14.50
2023-03-24T09:45:18.242Z,14.40
2023-03-24T09:47:54.653Z,14.40
2023-03-24T09:50:48.340Z,14.40
2023-03-24T09:53:34.627Z,14.30
2023-03-24T09:56:16.178Z,14.20
2023-03-24T09:58:45.384Z,14.10
2023-03-24T10:01:15.240Z,14.10
2023-03-24T10:03:46.431Z,14.00
2023-03-24T10:06:39.810Z,14.00
2023-03-24T10:09:34.817Z,13.90
2023-03-24T10:12:16.292Z,13.80
2023-03-24T10:14:57.952Z,13.80
2023-03-24T10:17:53.821Z,13.70
2023-03-24T10:20:41.446Z,13.80
2023-03-24T10:23:32.911Z,13.80
2023-03-24T10:26:12.160Z,14.00
2023-03-24T10:28:52.290Z,13.90
2023-03-24T10:31:27.872Z,13.80
2023-03-24T10:33:54.749Z,13.70
2023-03-24T10:36:23.189Z,13.70
2023-03-24T10:38:49.852Z,14.00
2023-03-24T10:41:28.971Z,13.90
2023-03-24T10:43:59.186Z,14.10
2023-03-24T10:46:28.334Z,14.20
2023-03-24T10:49:10.081Z,14.30
2023-03-24T10:51:37.097Z,14.40
2023-03-24T10:54:12.665Z,14.20
2023-03-24T10:56:43.221Z,14.10
2023-03-24T10:59:27.519Z,13.50
2023-03-24T11:02:14.585Z,13.30
2023-03-24T11:04:48.255Z,13.40
2023-03-24T11:07:20.668Z,13.20
2023-03-24T11:10:01.012Z,13.20
2023-03-24T11:12:33.394Z,13.20
2023-03-24T11:15:20.134Z,13.10
2023-03-24T11:17:56.695Z,13.10
2023-03-24T11:20:36.282Z,13.20
2023-03-24T11:23:28.124Z,13.10
2023-03-24T11:26:08.714Z,13.10
2023-03-24T11:28:42.741Z,13.00
2023-03-24T11:31:11.846Z,13.00
2023-03-24T11:33:47.241Z,13.00
2023-03-24T11:36:30.164Z,13.00
2023-03-24T11:39:21.687Z,12.90
2023-03-24T11:41:53.101Z,12.80
2023-03-24T11:44:22.876Z,12.90
2023-03-24T11:46:55.694Z,12.80
2023-03-24T11:49:30.385Z,12.70
2023-03-24T11:51:57.287Z,12.60
2023-03-24T11:54:32.491Z,12.60
2023-03-24T11:57:11.707Z,12.40
2023-03-24T12:00:13.534Z,12.20
2023-03-24T12:02:42.739Z,12.10
2023-03-24T12:05:24.356Z,12.00
2023-03-24T12:08:14.087Z,11.80
2023-03-24T12:11:05.656Z,11.80
2023-03-24T12:13:49.176Z,11.80
2023-03-24T12:16:43.491Z,11.80
2023-03-24T12:19:34.541Z,11.70
2023-03-24T12:22:32.603Z,11.80
2023-03-24T12:25:27.707Z,11.70
2023-03-24T12:28:09.350Z,11.70
2023-03-24T12:30:45.299Z,11.80
2023-03-24T12:33:38.432Z,11.80
2023-03-24T12:36:45.884Z,11.70
2023-03-24T12:39:23.905Z,11.80
2023-03-24T12:42:06.576Z,11.70
2023-03-24T12:44:47.967Z,11.80
2023-03-24T12:47:38.818Z,11.80
2023-03-24T12:50:37.994Z,11.70
2023-03-24T12:53:34.404Z,11.80
2023-03-24T12:56:03.836Z,12.00
2023-03-24T12:58:46.849Z,12.30
2023-03-24T13:01:29.529Z,12.30
2023-03-24T13:04:26.625Z,12.40
2023-03-24T13:07:03.449Z,12.40
2023-03-24T13:09:59.196Z,12.40
2023-03-24T13:13:03.790Z,12.70
2023-03-24T13:15:43.268Z,12.80
2023-03-24T13:18:10.026Z,12.60
2023-03-24T13:20:50.247Z,12.60
2023-03-24T13:23:45.730Z,12.50
2023-03-24T13:26:15.357Z,12.50
2023-03-24T13:29:14.460Z,12.50
2023-03-24T13:31:51.633Z,12.90
2023-03-24T13:34:36.191Z,12.60
2023-03-24T13:37:12.406Z,12.50
2023-03-24T13:39:39.286Z,12.60
2023-03-24T13:42:06.248Z,12.50
2023-03-24T13:44:42.532Z,12.30
2023-03-24T13:47:17.428Z,12.30
2023-03-24T13:49:56.538Z,12.30
2023-03-24T13:52:36.469Z,12.40
2023-03-24T13:55:10.768Z,12.20
2023-03-24T13:57:41.766Z,12.20
2023-03-24T14:00:14.317Z,12.20
2023-03-24T14:02:43.761Z,12.20
2023-03-24T14:05:30.052Z,12.10
2023-03-24T14:08:05.883Z,12.20
2023-03-24T14:10:38.636Z,12.10
2023-03-24T14:13:14.119Z,12.00
2023-03-24T14:16:07.412Z,12.00
2023-03-24T14:18:34.486Z,12.00
2023-03-24T14:21:04.472Z,12.10
2023-03-24T14:23:49.341Z,12.30
2023-03-24T14:26:23.221Z,12.30
2023-03-24T14:28:52.408Z,12.30
2023-03-24T14:31:29.465Z,12.40
2023-03-24T14:34:02.598Z,12.50
2023-03-24T14:36:31.135Z,12.40
2023-03-24T14:39:13.954Z,12.40
2023-03-24T14:41:44.243Z,12.20
2023-03-24T14:44:11.486Z,12.40
2023-03-24T14:46:50.232Z,12.30
2023-03-24T14:49:33.578Z,12.10
2023-03-24T14:52:39.683Z,12.20
2023-03-24T14:55:19.470Z,12.20
2023-03-24T14:57:51.315Z,12.10
2023-03-24T15:00:27.635Z,12.10
2023-03-24T15:03:26.640Z,12.20
2023-03-24T15:05:53.554Z,12.20
2023-03-24T15:08:22.319Z,12.20
2023-03-24T15:10:55.456Z,12.20
2023-03-24T15:13:39.045Z,12.40
2023-03-24T15:16:11.502Z,12.30
2023-03-24T15:19:01.812Z,12.20
2023-03-24T15:21:38.269Z,12.10
2023-03-24T15:24:38.037Z,12.00
2023-03-24T15:27:17.858Z,12.00
2023-03-24T15:29:45.568Z,11.80
2023-03-24T15:32:19.158Z,11.80
2023-03-24T15:34:52.183Z,11.70
2023-03-24T15:37:25.026Z,11.60
2023-03-24T15:40:01.778Z,11.50
2023-03-24T15:42:33.195Z,11.50
2023-03-24T15:45:26.095Z,11.60
2023-03-24T15:47:54.390Z,11.50
2023-03-24T15:50:35.449Z,11.40
2023-03-24T15:53:14.210Z,11.20
2023-03-24T15:55:43.370Z,11.10
2023-03-24T15:58:27.859Z,11.00
2023-03-24T16:00:59.712Z,10.90
2023-03-24T16:03:27.469Z,10.80
2023-03-24T16:05:56.650Z,10.90
2023-03-24T16:08:40.976Z,10.80
2023-03-24T16:11:13.847Z,10.90
2023-03-24T16:13:43.286Z,10.90
2023-03-24T16:16:15.967Z,10.90
2023-03-24T16:18:48.613Z,10.90
2023-03-24T16:21:18.494Z,10.90
2023-03-24T16:23:46.482Z,11.10
2023-03-24T16:26:18.300Z,11.10
2023-03-24T16:28:46.565Z,11.00
2023-03-24T16:31:26.682Z,10.90
2023-03-24T16:33:55.934Z,10.90
2023-03-24T16:36:26.541Z,10.70
2023-03-24T16:38:55.162Z,10.60
2023-03-24T16:41:22.280Z,10.60
2023-03-24T16:43:48.990Z,10.50
2023-03-24T16:46:36.253Z,10.50
2023-03-24T16:49:05.375Z,10.50
2023-03-24T16:51:32.310Z,10.50
2023-03-24T16:53:59.339Z,10.50
2023-03-24T16:56:26.525Z,10.50
2023-03-24T16:58:54.470Z,10.50
2023-03-24T17:01:37.292Z,10.50
2023-03-24T17:04:13.128Z,10.40
2023-03-24T17:06:43.562Z,10.40
2023-03-24T17:09:12.542Z,10.30
2023-03-24T17:11:42.233Z,10.30
2023-03-24T17:14:12.286Z,10.40
2023-03-24T17:16:43.801Z,10.40
2023-03-24T17:19:15.373Z,10.50
2023-03-24T17:21:45.839Z,10.40
2023-03-24T17:24:13.468Z,10.40
2023-03-24T17:26:41.812Z,10.60
2023-03-24T17:29:14.708Z,10.70
2023-03-24T17:31:43.118Z,10.70
2023-03-24T17:34:21.534Z,10.80
2023-03-24T17:36:50.345Z,10.70
2023-03-24T17:39:18.754Z,10.60
2023-03-24T17:41:45.604Z,10.60
2023-03-24T17:44:12.345Z,10.60
2023-03-24T17:46:39.065Z,10.50
2023-03-24T17:49:06.333Z,10.50
2023-03-24T17:51:33.038Z,10.60
2023-03-24T17:53:59.876Z,10.40
2023-03-24T17:56:26.801Z,10.40
2023-03-24T17:58:56.289Z,10.40
2023-03-24T18:01:23.571Z,10.50
2023-03-24T18:03:51.368Z,10.30
2023-03-24T18:06:18.180Z,10.00
2023-03-24T18:08:45.154Z,10.10
2023-03-24T18:11:14.555Z,10.00
2023-03-24T18:13:41.959Z,10.00
2023-03-24T18:16:19.957Z,10.10
2023-03-24T18:18:48.481Z,10.20
2023-03-24T18:21:15.291Z,10.10
2023-03-24T18:23:41.933Z,9.90
2023-03-24T18:26:09.111Z,9.90
2023-03-24T18:28:40.013Z,10.10
2023-03-24T18:31:20.006Z,10.10
2023-03-24T18:33:51.058Z,10.20
2023-03-24T18:36:26.193Z,10.20
2023-03-24T18:38:58.283Z,10.30
2023-03-24T18:41:28.550Z,10.10
2023-03-24T18:43:56.506Z,9.90
2023-03-24T18:46:23.606Z,9.70
2023-03-24T18:48:53.000Z,9.60
2023-03-24T18:51:21.446Z,9.60
2023-03-24T18:53:49.238Z,9.60
2023-03-24T18:56:16.736Z,9.80
2023-03-24T18:58:44.158Z,9.80
2023-03-24T19:01:13.267Z,9.70
2023-03-24T19:03:41.920Z,9.60
2023-03-24T19:06:10.980Z,9.50
2023-03-24T19:08:40.823Z,9.30
2023-03-24T19:11:08.719Z,9.40
2023-03-24T19:13:36.300Z,9.30
2023-03-24T19:16:04.603Z,9.30
2023-03-24T19:18:31.312Z,9.30
2023-03-24T19:20:58.840Z,9.40
2023-03-24T19:23:26.277Z,9.30
2023-03-24T19:25:56.155Z,9.50
2023-03-24T19:28:24.413Z,9.40
2023-03-24T19:30:51.478Z,9.40
2023-03-24T19:33:18.159Z,9.60
2023-03-24T19:35:48.084Z,9.80
2023-03-24T19:38:16.216Z,9.60
2023-03-24T19:40:43.019Z,9.40
2023-03-24T19:43:09.841Z,9.30
2023-03-24T19:45:36.469Z,9.30
2023-03-24T19:48:03.158Z,9.40
2023-03-24T19:50:29.807Z,9.20
2023-03-24T19:52:56.523Z,9.10
2023-03-24T19:55:23.235Z,9.20
2023-03-24T19:57:49.809Z,9.20
2023-03-24T20:00:16.710Z,9.10
2023-03-24T20:02:43.357Z,9.00
2023-03-24T20:05:10.126Z,8.90
2023-03-24T20:07:37.308Z,8.90
2023-03-24T20:10:04.219Z,8.90
2023-03-24T20:12:32.076Z,8.90
2023-03-24T20:14:58.724Z,9.00
2023-03-24T20:17:28.415Z,9.10
2023-03-24T20:19:55.826Z,9.40
2023-03-24T20:22:22.784Z,9.30
2023-03-24T20:24:49.426Z,9.30
2023-03-24T20:27:16.891Z,9.00
2023-03-24T20:29:45.655Z,9.00
2023-03-24T20:32:12.701Z,8.90
2023-03-24T20:34:39.336Z,8.80
2023-03-24T20:37:06.818Z,8.70
2023-03-24T20:39:33.714Z,8.70
2023-03-24T20:42:00.937Z,8.70
2023-03-24T20:44:27.884Z,8.80
2023-03-24T20:46:57.003Z,8.90
2023-03-24T20:49:24.360Z,9.00
2023-03-24T20:51:51.498Z,9.30
2023-03-24T20:54:18.211Z,9.30
2023-03-24T20:56:44.947Z,9.30
2023-03-24T20:59:13.643Z,9.10
2023-03-24T21:01:42.137Z,8.90
2023-03-24T21:04:09.922Z,8.70
2023-03-24T21:06:40.607Z,8.60
2023-03-24T21:09:07.261Z,8.40
2023-03-24T21:11:34.418Z,8.40
2023-03-24T21:14:02.512Z,8.60
2023-03-24T21:16:33.524Z,8.70
2023-03-24T21:19:03.642Z,8.70
2023-03-24T21:21:30.504Z,8.90
2023-03-24T21:23:57.809Z,9.00
2023-03-24T21:26:25.448Z,9.00
2023-03-24T21:28:52.950Z,9.20
2023-03-24T21:31:21.606Z,9.40
2023-03-24T21:33:48.872Z,9.50
2023-03-24T21:36:16.653Z,9.50
2023-03-24T21:38:43.377Z,9.50
2023-03-24T21:41:10.444Z,9.50
2023-03-24T21:43:38.117Z,9.40
2023-03-24T21:46:05.036Z,9.10
2023-03-24T21:48:40.052Z,9.00
2023-03-24T21:51:06.777Z,9.10
2023-03-24T21:53:34.810Z,9.30
2023-03-24T21:56:04.610Z,9.40
2023-03-24T21:58:32.645Z,9.40
2023-03-24T22:01:00.367Z,9.40
2023-03-24T22:03:27.790Z,9.30
2023-03-24T22:05:56.591Z,9.10
2023-03-24T22:08:26.517Z,9.20
2023-03-24T22:11:04.111Z,9.30
2023-03-24T22:13:32.008Z,9.30
2023-03-24T22:16:01.791Z,9.50
2023-03-24T22:18:31.742Z,9.50
2023-03-24T22:21:04.347Z,9.40
2023-03-24T22:23:33.915Z,9.50
2023-03-24T22:26:01.944Z,9.50
2023-03-24T22:28:29.534Z,9.40
2023-03-24T22:31:16.772Z,9.40
2023-03-24T22:33:44.655Z,9.30
2023-03-24T22:36:12.253Z,9.20
2023-03-24T22:38:38.945Z,9.30
2023-03-24T22:41:08.182Z,9.10
2023-03-24T22:43:35.908Z,9.00
2023-03-24T22:46:02.885Z,8.80
2023-03-24T22:48:29.660Z,8.80
2023-03-24T22:50:56.761Z,8.80
2023-03-24T22:53:23.600Z,8.70
2023-03-24T22:55:50.696Z,8.70
2023-03-24T22:58:18.033Z,8.70
2023-03-24T23:00:49.608Z,8.80
2023-03-24T23:03:16.807Z,8.80
2023-03-24T23:05:45.816Z,8.80
2023-03-24T23:08:14.965Z,8.90
2023-03-24T23:10:43.796Z,8.80
2023-03-24T23:13:10.808Z,8.90
2023-03-24T23:15:38.935Z,9.00
2023-03-24T23:18:05.721Z,9.10
2023-03-24T23:20:33.003Z,8.90
2023-03-24T23:23:01.105Z,9.00
2023-03-24T23:25:30.741Z,9.10
2023-03-24T23:27:58.220Z,9.00
2023-03-24T23:30:24.966Z,8.90
2023-03-24T23:32:51.742Z,9.00
2023-03-24T23:35:19.707Z,9.00
2023-03-24T23:37:46.487Z,9.10
2023-03-24T23:40:15.255Z,9.30
2023-03-24T23:42:46.217Z,9.10
2023-03-24T23:45:14.915Z,9.10
2023-03-24T23:47:43.741Z,9.20
2023-03-24T23:50:11.510Z,9.20
2023-03-24T23:52:41.254Z,9.20
2023-03-24T23:55:10.243Z,9.10
2023-03-24T23:57:41.210Z,9.10
